Home > Products > Valid Products > TAF

000
FTUS43 KLBF 020500
TAFLBF
TAF
KLBF 020520Z 0206/0306 VRB06KT P6SM FEW030 SCT070
     FM021200 VRB05KT 3SM BCFG SKC
     FM021500 20010KT P6SM SCT120
     FM030000 14007KT P6SM SCT120=



000
FTUS43 KLBF 020500
TAFVTN
TAF
KVTN 020520Z 0206/0306 26006KT P6SM SKC
     FM020900 VRB06KT 5SM BR SKC
     FM021300 21010KT P6SM SKC
     FM022100 17010KT P6SM SCT120=



000
FTUS43 KLBF 020200 AAA
TAFLBF
TAF AMD
KLBF 020213Z 0202/0224 20006KT P6SM VCTS SCT070CB SCT120
      TEMPO 0202/0203 VRB15G25KT 5SM -TSRA SCT050CB
     FM020400 VRB04KT P6SM SKC
     FM021800 20010KT P6SM SKC=



000
FTUS43 KLBF 020100 AAB
TAFLBF
TAF AMD
KLBF 020120Z 0201/0224 20006KT P6SM VCTS SCT050CB SCT120
     FM020400 VRB04KT P6SM SKC
     FM021800 20010KT P6SM SKC=



000
FTUS43 KLBF 020100 AAA
TAFVTN
TAF AMD
KVTN 020100Z 0201/0224 32007KT P6SM FEW050 SCT110
     FM020200 32007KT P6SM SCT080 BKN120
     FM020600 26005KT P6SM SKC
     FM021500 21010KT P6SM SKC=



000
FTUS43 KLBF 020000 AAA
TAFLBF
TAF AMD
KLBF 020032Z 0201/0224 20006KT P6SM SCT080 SCT120
     FM020400 VRB04KT P6SM SKC
     FM021800 20010KT P6SM SKC=



000
FTUS43 KLBF 012300 CCA
TAFVTN
TAF COR
KVTN 012332Z 0200/0224 VRB10G20KT P6SM -TSRA BKN080CB
     FM020200 32007KT P6SM SCT080 BKN120
     FM020600 26005KT P6SM SKC
     FM021500 21010KT P6SM SKC=



000
FTUS43 KLBF 012300
TAFVTN
TAF
KVTN 012320Z 0200/0224 34010G20KT P6SM -TSRA BKN080CB
     FM020200 32007KT P6SM SCT080 BKN120
     FM020600 26005KT P6SM SKC
     FM021500 21010KT P6SM SKC=



000
FTUS43 KLBF 012300
TAFLBF
TAF
KLBF 012320Z 0200/0224 22006KT P6SM VCTS BKN080CB
     FM020300 20006KT P6SM SCT080 SCT120
     FM020600 VRB04KT P6SM SKC
     FM021800 20010KT P6SM SKC=



000
FTUS43 KLBF 012200 AAA
TAFVTN
TAF AMD
KVTN 012233Z 0123/0218 34007KT P6SM VCTS BKN080CB
      TEMPO 0123/0124 VRB20G35KT 3SM -TSRA FEW025 BKN050CB
     FM020200 32007KT P6SM BKN020
     FM020600 25005KT P6SM SKC
     FM021600 22010KT P6SM SKC=



000
FTUS43 KLBF 011700
TAFLBF
TAF
KLBF 011720Z 0118/0218 24006KT P6SM BKN100
     FM020400 VRB03KT P6SM SKC=



000
FTUS43 KLBF 011700
TAFVTN
TAF
KVTN 011720Z 0118/0218 28008KT P6SM SKC
     FM012100 34007KT P6SM VCTS BKN080CB
      TEMPO 0121/0124 VRB20G35KT 1 1/2SM +TSRA BKN050CB
     FM020200 32007KT P6SM BKN020
     FM020600 25005KT P6SM SKC
     FM021600 22010KT P6SM SKC=



000
FTUS43 KLBF 011200 AAA
TAFVTN
TAF AMD
KVTN 011232Z 0113/0212 29008KT P6SM SCT010
     FM012100 34007KT P6SM BKN100 PROB30 0122/0202 5SM -TSRA
      BKN050CB
     FM020600 VRB04KT P6SM SKC=



000
FTUS43 KLBF 011100
TAFVTN
TAF
KVTN 011130Z 0112/0212 29008KT P6SM SCT010
      TEMPO 0112/0114 5SM BR BKN030
     FM012100 34007KT P6SM BKN100 PROB30 0122/0202 5SM -TSRA
      BKN050CB
     FM020600 VRB04KT P6SM SKC=



000
FTUS43 KLBF 011100
TAFLBF
TAF
KLBF 011130Z 0112/0212 30006KT P6SM SCT100
     FM020400 VRB03KT P6SM SKC=



000
FTUS43 KLBF 011000 AAA
TAFVTN
TAF AMD
KVTN 011004Z 0110/0206 VRB04KT P6SM SCT050
      TEMPO 0111/0114 5SM BR BKN030
     FM011400 30007KT P6SM SCT050 SCT100
     FM012200 34007KT P6SM OVC100 PROB30 0122/0202 5SM -SHRA OVC070=



000
FTUS43 KLBF 010500
TAFLBF
TAF
KLBF 010520Z 0106/0206 34008KT P6SM SCT120
     FM012100 25006KT P6SM SCT100
     FM020000 VRB06KT P6SM SCT100=



000
FTUS43 KLBF 010500
TAFVTN
TAF
KVTN 010520Z 0106/0206 31007KT P6SM SCT050 BKN120
     FM010900 30006KT 5SM BR BKN020
     FM011400 30007KT P6SM SCT050 SCT100
     FM012200 34007KT P6SM OVC100 PROB30 0122/0202 5SM -SHRA OVC070=



000
FTUS43 KLBF 010200 AAC
TAFVTN
TAF AMD
KVTN 010230Z 0103/0124 30015G25KT P6SM VCTS SCT050CB BKN120
     FM010300 29012KT P6SM SCT050 BKN120
     FM010500 31007KT P6SM SCT050 BKN120
     FM011900 28010KT P6SM SCT030 BKN100=



000
FTUS43 KLBF 010100 AAB
TAFVTN
TAF AMD
KVTN 010150Z 0102/0124 30012G20KT P6SM -TSRA SCT050CB BKN120
     FM010215 29010KT P6SM VCTS SCT050CB BKN120
     FM010500 31007KT P6SM SCT050 BKN120
     FM011900 28010KT P6SM SCT030 BKN100=



000
FTUS43 KLBF 010100 AAA
TAFVTN
TAF AMD
KVTN 010136Z 0102/0124 34007KT P6SM FEW035 SCT050 BKN120
     FM010500 31007KT P6SM SCT050 BKN120
     FM011900 28010KT P6SM SCT030 BKN100=



000
FTUS43 KLBF 312300
TAFVTN
TAF
KVTN 312327Z 0100/0124 34007KT P6SM SCT050 BKN120
      TEMPO 0100/0103 34012G20KT 3SM TSRA SCT030 BKN050CB
     FM010500 31007KT P6SM SCT050 BKN120
     FM011900 28010KT P6SM SCT030 BKN100=



000
FTUS43 KLBF 312300
TAFLBF
TAF
KLBF 312327Z 0100/0124 29005KT P6SM VCTS SCT050CB BKN120
     FM010400 34008KT P6SM SCT120
     FM012100 27006KT P6SM SCT050=



000
FTUS43 KLBF 311900 AAA
TAFVTN
TAF AMD
KVTN 311905Z 3119/0118 16005KT P6SM BKN080
     FM312100 35008KT P6SM BKN080
     FM010000 34007KT 5SM TSRA BKN040CB
     FM010400 32007KT P6SM BKN012
     FM010500 29009KT P6SM SCT015=



000
FTUS43 KLBF 311700 CCA
TAFLBF
TAF COR
KLBF 311758Z 3118/0118 35015G21KT P6SM VCSH SCT050 BKN100
     FM312200 VRB05KT P6SM SCT050 BKN100
      TEMPO 3122/0101 5SM -TSRA BKN040CB OVC120
     FM010200 35008KT P6SM SCT030
     FM011100 33005KT P6SM BKN012
     FM011500 35008KT P6SM SCT015=



000
FTUS43 KLBF 311700
TAFVTN
TAF
KVTN 311720Z 3118/0118 33008KT P6SM -RA SCT060 BKN080
      TEMPO 3118/3120 5SM TSRA BKN050CB
     FM312100 35008KT P6SM BKN080
     FM010000 34007KT 5SM TSRA BKN040CB
     FM010400 32007KT P6SM BKN012
     FM010500 29009KT P6SM SCT015=



000
FTUS43 KLBF 311700
TAFLBF
TAF
KLBF 311720Z 3118/0118 32015G21KT P6SM VCSH SCT050 BKN100
     FM312200 VRB05KT P6SM SCT050 BKN100
      TEMPO 3122/0101 5SM -TSRA BKN040CB OVC120
     FM010200 35008KT P6SM SCT030
     FM011100 33005KT P6SM BKN012
     FM011500 35008KT P6SM SCT015=



000
FTUS43 KLBF 311700 AAA
TAFVTN
TAF AMD
KVTN 311704Z 3117/0112 30008KT P6SM -RA SCT060 BKN100
      TEMPO 3117/3120 5SM TSRA BKN050CB
     FM010100 32007KT 5SM TSRA BKN040CB=



000
FTUS43 KLBF 311700 AAA
TAFLBF
TAF AMD
KLBF 311702Z 3117/0112 32015G20KT P6SM VCSH SCT050 BKN100
     FM312200 VRB05KT P6SM SCT050 BKN100
      TEMPO 3122/0101 5SM -TSRA BKN040CB OVC120
     FM010500 01008KT P6SM SCT030=



000
FTUS43 KLBF 311100
TAFLBF
TAF
KLBF 311128Z 3112/0112 VRB05KT P6SM SCT120
     FM311700 32009KT P6SM SCT100 BKN150
     FM312200 VRB05KT P6SM SCT050 BKN100
      TEMPO 3122/0101 5SM -TSRA BKN040CB OVC120
     FM010500 01008KT P6SM SCT030=



000
FTUS43 KLBF 311100
TAFVTN
TAF
KVTN 311128Z 3112/0112 25009KT P6SM SCT110
     FM311600 33008KT P6SM SCT060 BKN100
      TEMPO 3117/3120 5SM TSRA BKN050CB
     FM010100 32007KT 5SM TSRA BKN040CB=



000
FTUS43 KLBF 310800 AAB
TAFVTN
TAF AMD
KVTN 310832Z 3109/0106 29009KT P6SM SCT110
     FM311400 32010KT P6SM BKN100
     FM311800 33012KT P6SM SCT050 BKN090
      TEMPO 3118/3121 5SM -TSRA BKN050CB=



000
FTUS43 KLBF 310600 AAA
TAFVTN
TAF AMD
KVTN 310658Z 3107/0106 20012KT P6SM SCT060 BKN110
      TEMPO 3107/3109 5SM -SHRA BKN060
     FM310900 23012KT P6SM SCT070
     FM311400 32010KT P6SM BKN100=



000
FTUS43 KLBF 310600 AAA
TAFLBF
TAF AMD
KLBF 310655Z 3107/0106 VRB05KT P6SM BKN100
     FM311500 32010KT P6SM SCT100
      TEMPO 3116/3118 3SM TSRA BKN040CB OVC120=



000
FTUS43 KLBF 310500
TAFVTN
TAF
KVTN 310524Z 3106/0106 21012KT P6SM FEW035 BKN110
      TEMPO 3106/3108 5SM TSRA BKN050CB
     FM310900 23012KT P6SM SCT070
     FM311400 32010KT P6SM BKN100=



000
FTUS43 KLBF 310500
TAFLBF
TAF
KLBF 310524Z 3106/0106 18014KT P6SM SCT070 BKN120
     FM310800 18012G21KT P6SM VCTS SCT040CB BKN100
     FM310900 VRB06KT P6SM SCT050 BKN120
     FM311500 32010KT P6SM SCT100
      TEMPO 3116/3118 3SM TSRA BKN040CB OVC120=



000
FTUS43 KLBF 310400 AAE
TAFVTN
TAF AMD
KVTN 310424Z 3104/3124 20013G21KT P6SM SCT035 BKN200
     FM310500 19013G25KT P6SM SCT070 BKN200
      TEMPO 3106/3108 5SM TSRA BKN050CB
     FM310900 20012KT P6SM SCT070
     FM311400 32010KT P6SM BKN100=



000
FTUS43 KLBF 310400 AAD
TAFVTN
TAF AMD
KVTN 310420Z 3104/3124 20024G31KT P6SM SCT035 BKN200
     FM310500 19013G25KT P6SM SCT070 BKN200
      TEMPO 3106/3108 5SM TSRA BKN050CB
     FM310900 20012KT P6SM SCT070
     FM311400 32010KT P6SM BKN100=



000
FTUS43 KLBF 310400 AAA
TAFLBF
TAF AMD
KLBF 310418Z 3104/3124 15007KT P6SM SCT070 BKN200
     FM310600 VRB12G22KT P6SM VCTS BKN050CB OVC120
     FM310700 VRB06KT P6SM SCT070
     FM311500 32010KT P6SM SCT100=



000
FTUS43 KLBF 310400 AAC
TAFVTN
TAF AMD
KVTN 310416Z 3104/3124 18013G21KT P6SM SCT070 BKN200
      TEMPO 3106/3108 5SM TSRA BKN050CB
     FM310900 20012KT P6SM SCT070
     FM311400 32010KT P6SM BKN100=



000
FTUS43 KLBF 310300 AAB
TAFVTN
TAF AMD
KVTN 310310Z 3103/3124 17012KT P6SM SKC
     FM310700 17012KT P6SM SCT070
     FM311400 32010KT P6SM BKN100=



000
FTUS43 KLBF 310100 AAA
TAFVTN
TAF AMD
KVTN 310135Z 3102/3124 17014G22KT P6SM SKC
     FM310700 17012KT P6SM SCT070
     FM311400 32010KT P6SM BKN100=



000
FTUS43 KLBF 302300
TAFLBF
TAF
KLBF 302320Z 3100/3124 15007KT P6SM SKC
     FM310700 VRB06KT P6SM SCT070
     FM311500 32010KT P6SM SCT100=



000
FTUS43 KLBF 302300
TAFVTN
TAF
KVTN 302320Z 3100/3124 15017G26KT P6SM SKC
     FM310700 17012KT P6SM SCT070
     FM311400 32010KT P6SM BKN100=



000
FTUS43 KLBF 301700
TAFVTN
TAF
KVTN 301731Z 3018/3118 16014G23KT P6SM SKC
     FM310300 17012KT P6SM SCT100
     FM311400 32010KT P6SM BKN100=



000
FTUS43 KLBF 301700
TAFLBF
TAF
KLBF 301731Z 3018/3118 16012KT P6SM SKC
     FM310400 17007KT P6SM SCT100
     FM311500 32010KT P6SM SCT100=



000
FTUS43 KLBF 301500 AAE
TAFVTN
TAF AMD
KVTN 301505Z 3015/3112 VRB03KT P6SM SCT005
     FM301600 15008KT P6SM SKC
     FM302000 17014G21KT P6SM SCT050
     FM310300 16017G22KT P6SM BKN150=



000
FTUS43 KLBF 301400 AAD
TAFVTN
TAF AMD
KVTN 301435Z 3015/3112 VRB03KT P6SM SCT005
      TEMPO 3015/3016 OVC003
     FM301600 15008KT P6SM SKC
     FM302000 17014G21KT P6SM SCT050
     FM310300 16017G22KT P6SM BKN150=



000
FTUS43 KLBF 301400 AAC
TAFVTN
TAF AMD
KVTN 301434Z 3015/3112 VRB03KT P6SM SCT005
      TEMPO 3015/3016 OVC003
     FM302000 17014G21KT P6SM SCT050
     FM310300 16017G22KT P6SM BKN150=



000
FTUS43 KLBF 301200 AAB
TAFVTN
TAF AMD
KVTN 301245Z 3013/3112 VRB03KT 1/2SM FG OVC002
      TEMPO 3013/3015 3SM BR SCT004
     FM301500 15008KT P6SM SKC
     FM302000 17014G21KT P6SM SCT050
     FM310300 16017G22KT P6SM BKN150=



000
FTUS43 KLBF 301200 AAA
TAFLBF
TAF AMD
KLBF 301242Z 3013/3112 VRB03KT P6SM SCT120
     FM301500 16008KT P6SM SKC
     FM302100 17015KT P6SM SCT120
     FM310500 19012KT P6SM SCT040 BKN150=



000
FTUS43 KLBF 301200 AAA
TAFVTN
TAF AMD
KVTN 301211Z 3012/3112 VRB03KT P6SM BKN004
      TEMPO 3012/3014 SCT004
     FM301500 15008KT P6SM SKC
     FM302000 17014G21KT P6SM SCT050
     FM310300 16017G22KT P6SM BKN150=



000
FTUS43 KLBF 301100
TAFLBF
TAF
KLBF 301123Z 3012/3112 VRB03KT P6SM FEW120
      TEMPO 3012/3014 1/2SM BCFG
     FM301400 16008KT P6SM SKC
     FM302100 17015KT P6SM SCT120
     FM310500 19012KT P6SM SCT040 BKN150=



000
FTUS43 KLBF 301100
TAFVTN
TAF
KVTN 301123Z 3012/3112 VRB03KT P6SM SCT006
      TEMPO 3012/3014 4SM BR
     FM301500 15008KT P6SM SKC
     FM302000 17014G21KT P6SM SCT050
     FM310300 16017G22KT P6SM BKN150=



    US Dept of Commerce
    National Oceanic and Atmospheric Administration
    National Weather Service
    1325 East West Highway
    Silver Spring, MD 20910
    Page Author: NWS Internet Services Team
Disclaimer
Information Quality
Credits
Glossary
Privacy Policy
Freedom of Information Act (FOIA)
About Us
Career Opportunities